Las Palomas, New Mexico
Current Conditions -  °F | °C
As of 12:53 PM on Monday 26 Jan 2015 (Local Time) from KTCS Reporting Station
Clear Clear  
Wind Chill: 56°   Ceiling: Unl
Heat Index: 56°   Visibility: 10mi
Dew Point: 27°   Wind: 5mph
Humidity: 33%   Direction: 50°NE
Pressure: 30.3"   Gusts: NA
Location:  33.1162°N, 107.291°W
Report Text: KTCS 261953Z AUTO 05004KT 10SM CLR 13/M03 A3030 RMK AO2 SLP234 T01331028 TSNO
Loading
Personal Weather Stations






























Interactive Weather Map New forecast layout! Learn more

10-Day Weather Forecast

Advertisements
Track Severe Weather on mobile